D/T METAR WX W/SPE G/SPE TEMP DEWP FEEL
31/01/23 12:50 EGSS 311250Z AUTO 28012KT 250V310 9999 BKN028 OVC041 11/05 Q1022 13.8mph 11°C 5°C 10.3°C
31/01/23 06:20 EGSS 310620Z AUTO 25009KT 9999 NCD 05/03 Q1023 10.4mph 5°C 3°C 3.7°C
31/01/23 04:50 EGSS 310450Z AUTO 24008KT 9999 SCT043 05/03 Q1023 9.2mph 5°C 3°C 3.7°C
30/01/23 22:20 EGSS 302220Z AUTO 25004KT 9999 NCD 01/M00 Q1027 4.6mph 1°C 0°C -1.2°C
30/01/23 12:50 EGSS 301250Z AUTO 31010KT 270V340 9999 NCD 09/03 Q1024 11.5mph 9°C 3°C 7.7°C
30/01/23 10:50 EGSS 301050Z AUTO 29009KT 260V320 9999 NCD 07/02 Q1024 10.4mph 7°C 2°C 5.4°C
30/01/23 08:20 EGSS 300820Z AUTO 28010KT 9999 NCD 05/01 Q1022 11.5mph 5°C 1°C 3.1°C
30/01/23 06:50 EGSS 300650Z AUTO 29008KT 9999 BKN035 05/01 Q1022 9.2mph 5°C 1°C 3.1°C
09/01/23 06:50 EGSS 090650Z AUTO 23007KT 9999 NCD 03/03 Q0994 8.1mph 3°C 3°C 1.7°C
09/01/23 06:20 EGSS 090620Z AUTO 23007KT 9999 NCD 03/03 Q0994 8.1mph 3°C 3°C 1.7°C
09/01/23 05:50 EGSS 090550Z AUTO 25006KT 9999 NCD 04/03 Q0993 6.9mph 4°C 3°C 2.7°C
09/01/23 05:20 EGSS 090520Z AUTO 25006KT 9999 NCD 04/03 Q0993 6.9mph 4°C 3°C 2.7°C
09/01/23 04:50 EGSS 090450Z AUTO 25007KT 9999 NCD 05/03 Q0992 8.1mph 5°C 3°C 3.7°C
09/01/23 04:20 EGSS 090420Z AUTO 25008KT 9999 NCD 05/04 Q0992 9.2mph 5°C 4°C 4.0°C
09/01/23 03:50 EGSS 090350Z AUTO 26007KT 9999 NCD 05/04 Q0991 8.1mph 5°C 4°C 4.0°C
09/01/23 03:20 EGSS 090320Z AUTO 25007KT 9999 FEW037 05/04 Q0991 8.1mph 5°C 4°C 4.0°C
09/01/23 02:50 EGSS 090250Z AUTO 26006KT 9999 SCT031 05/04 Q0991 6.9mph 5°C 4°C 4.0°C
09/01/23 01:50 EGSS 090150Z AUTO 25006KT 9999 BKN010 05/05 Q0990 REDZ 6.9mph 5°C 5°C 4.3°C
09/01/23 01:20 EGSS 090120Z AUTO 23003KT 7000 -RA BKN014 OVC030 05/04 Q0989 -RA 3.5mph 5°C 4°C 4.0°C
09/01/23 00:50 EGSS 090050Z AUTO 15002KT 9999 BKN017 BKN025 OVC030 05/04 Q0989 2.3mph 5°C 4°C 4.0°C
09/01/23 00:20 EGSS 090020Z AUTO 15005KT 9999 SCT022 BKN033 04/04 Q0988 5.8mph 4°C 4°C 3.0°C
08/01/23 23:50 EGSS 082350Z AUTO 18005KT 9999 -RA BKN022 BKN030 05/04 Q0988 -RA 5.8mph 5°C 4°C 4.0°C
08/01/23 23:20 EGSS 082320Z AUTO 18006KT 9999 BKN031 04/03 Q0988 6.9mph 4°C 3°C 2.7°C
08/01/23 22:50 EGSS 082250Z AUTO 19007KT 9999 SCT048 04/03 Q0988 8.1mph 4°C 3°C 2.7°C
08/01/23 21:50 EGSS 082150Z AUTO 19007KT 9999 NCD 04/03 Q0989 8.1mph 4°C 3°C 2.7°C
08/01/23 20:20 EGSS 082020Z AUTO 20009KT 9999 NCD 04/03 Q0989 10.4mph 4°C 3°C 2.7°C
08/01/23 19:20 EGSS 081920Z AUTO 22011KT 9999 NCD 04/03 Q0989 12.7mph 4°C 3°C 2.7°C
08/01/23 18:50 EGSS 081850Z AUTO 23009KT 9999 NCD 04/03 Q0989 10.4mph 4°C 3°C 2.7°C
08/01/23 18:20 EGSS 081820Z AUTO 23010KT 9999 SCT013/// BKN018/// BKN028/// //////TCU 05/03 Q0989 11.5mph 5°C 3°C 3.7°C
08/01/23 17:50 EGSS 081750Z AUTO 23015G25KT 9999 -RA SCT009/// BKN015/// BKN025/// //////CB 06/05 Q0989 -RA 17.3mph 28.8mph 6°C 5°C 5.3°C
08/01/23 17:20 EGSS 081720Z AUTO 20012KT 9999 -RA FEW017/// SCT035/// //////CB 06/05 Q0988 -RA 13.8mph 6°C 5°C 5.3°C
08/01/23 16:50 EGSS 081650Z AUTO 20011KT 9999 NCD 06/05 Q0988 12.7mph 6°C 5°C 5.3°C
08/01/23 16:20 EGSS 081620Z AUTO 19012KT 9999 -RA FEW038 06/05 Q0989 -RA 13.8mph 6°C 5°C 5.3°C
08/01/23 15:50 EGSS 081550Z AUTO 20014KT 9999 -RA BKN037/// //////TCU 07/05 Q0989 -RA 16.1mph 7°C 5°C 6.3°C
08/01/23 15:20 EGSS 081520Z AUTO 19016KT 8000 -RA FEW013/// SCT028/// OVC032/// //////CB 07/06 Q0989 -RA 18.4mph 7°C 6°C 6.6°C
08/01/23 14:20 EGSS 081420Z AUTO 18012KT 9999 FEW026/// BKN036/// //////CB 07/06 Q0989 13.8mph 7°C 6°C 6.6°C
08/01/23 13:50 EGSS 081350Z AUTO 21013KT 9000 -RA FEW014/// SCT021/// OVC027/// //////CB 07/06 Q0990 RERA -RA 15.0mph 7°C 6°C 6.6°C
08/01/23 12:50 EGSS 081250Z AUTO 23009KT 7000 -RA SCT010/// BKN018/// OVC036/// //////CB 08/07 Q0991 -RA 10.4mph 8°C 7°C 8.0°C
08/01/23 12:20 EGSS 081220Z AUTO 19017KT 9999 -RA BKN020/// OVC043/// //////CB 09/06 Q0991 -RA 19.6mph 9°C 6°C 8.6°C
08/01/23 11:50 EGSS 081150Z AUTO 19018KT 9999 -RA BKN019/// //////CB 09/06 Q0992 -RA 20.7mph 9°C 6°C 8.6°C
08/01/23 11:20 EGSS 081120Z AUTO 20014KT 9999 BKN017/// //////CB 09/06 Q0993 16.1mph 9°C 6°C 8.6°C
08/01/23 10:50 EGSS 081050Z AUTO 19013KT 9999 BKN015 BKN020 08/06 Q0993 15.0mph 8°C 6°C 7.6°C
08/01/23 09:50 EGSS 080950Z AUTO 19011KT 9999 FEW030 SCT046 07/06 Q0994 12.7mph 7°C 6°C 6.6°C
08/01/23 09:20 EGSS 080920Z AUTO 20012KT 9999 NCD 07/05 Q0994 13.8mph 7°C 5°C 6.3°C
08/01/23 08:50 EGSS 080850Z AUTO 20014KT 9999 SCT031 BKN038 07/05 Q0994 16.1mph 7°C 5°C 6.3°C
08/01/23 08:20 EGSS 080820Z AUTO 19011KT 9999 SCT032 BKN038 06/05 Q0994 12.7mph 6°C 5°C 5.3°C
08/01/23 07:50 EGSS 080750Z AUTO 19009KT 9999 FEW027 BKN032 06/04 Q0995 10.4mph 6°C 4°C 5.0°C
08/01/23 06:50 EGSS 080650Z AUTO 19010KT 9999 SCT039 BKN046 06/05 Q0995 11.5mph 6°C 5°C 5.3°C
08/01/23 06:20 EGSS 080620Z AUTO 19011KT 9999 BKN039 06/04 Q0995 12.7mph 6°C 4°C 5.0°C
08/01/23 05:50 EGSS 080550Z AUTO 19013KT 9999 -RA SCT040/// BKN046/// //////CB 06/05 Q0995 -RA 15.0mph 6°C 5°C 5.3°C
08/01/23 05:20 EGSS 080520Z AUTO 20013KT 9999 SCT037/// //////CB 07/05 Q0995 15.0mph 7°C 5°C 6.3°C
08/01/23 04:50 EGSS 080450Z AUTO 21015KT 9999 -RA SCT020/// SCT038/// //////TCU 07/05 Q0996 -RA 17.3mph 7°C 5°C 6.3°C
08/01/23 04:20 EGSS 080420Z AUTO 21015KT 9999 -RA SCT024/// SCT034/// BKN045/// //////CB 07/05 Q0996 -RA 17.3mph 7°C 5°C 6.3°C
08/01/23 03:50 EGSS 080350Z AUTO 20013KT 9999 FEW022 07/05 Q0996 15.0mph 7°C 5°C 6.3°C
08/01/23 03:20 EGSS 080320Z AUTO 20012KT 9999 BKN019 BKN026 07/06 Q0996 13.8mph 7°C 6°C 6.6°C
08/01/23 02:50 EGSS 080250Z AUTO 19013KT 7000 -RA BKN019 BKN039 07/06 Q0996 -RA 15.0mph 7°C 6°C 6.6°C
08/01/23 02:20 EGSS 080220Z 19013KT 9999 SCT021 BKN028 BKN033 07/05 Q0996 15.0mph 7°C 5°C 6.3°C
08/01/23 01:50 EGSS 080150Z AUTO 20015KT 9999 BKN024 BKN037 BKN049 08/05 Q0996 17.3mph 8°C 5°C 7.3°C
08/01/23 01:20 EGSS 080120Z AUTO 19014KT 9999 FEW022 SCT032 BKN041 07/05 Q0996 16.1mph 7°C 5°C 6.3°C
08/01/23 00:20 EGSS 080020Z AUTO 20014KT 9999 NCD 07/05 Q0996 16.1mph 7°C 5°C 6.3°C
07/01/23 23:50 EGSS 072350Z AUTO 20015KT 9999 FEW023 SCT027 07/05 Q0997 17.3mph 7°C 5°C 6.3°C
07/01/23 23:20 EGSS 072320Z AUTO 21016KT 9999 NCD 07/04 Q0997 18.4mph 7°C 4°C 6.0°C
07/01/23 22:20 EGSS 072220Z AUTO 20012KT 9999 NCD 07/04 Q0997 13.8mph 7°C 4°C 6.0°C
07/01/23 21:50 EGSS 072150Z AUTO 20014KT 9999 NCD 07/04 Q0997 16.1mph 7°C 4°C 6.0°C
07/01/23 21:20 EGSS 072120Z AUTO 20015KT 9999 NCD 07/04 Q0997 17.3mph 7°C 4°C 6.0°C
07/01/23 20:50 EGSS 072050Z AUTO 21017KT 9999 NCD 07/05 Q0997 19.6mph 7°C 5°C 6.3°C
07/01/23 20:20 EGSS 072020Z AUTO 22016KT 9999 NCD 06/05 Q0996 18.4mph 6°C 5°C 5.3°C
07/01/23 19:50 EGSS 071950Z AUTO 21017KT 9999 FEW032 07/04 Q0996 19.6mph 7°C 4°C 6.0°C
07/01/23 19:20 EGSS 071920Z AUTO 22017KT 9999 NCD 07/04 Q0996 19.6mph 7°C 4°C 6.0°C
07/01/23 18:50 EGSS 071850Z AUTO 22020KT 9999 FEW027/// //////CB 08/05 Q0996 23.0mph 8°C 5°C 7.3°C
07/01/23 18:20 EGSS 071820Z AUTO 22022KT 9999 -RA BKN021/// BKN043/// //////TCU 09/07 Q0995 -RA 25.3mph 9°C 7°C 9.0°C
07/01/23 17:50 EGSS 071750Z AUTO 19017KT 9999 BKN026/// //////CB 09/07 Q0995 19.6mph 9°C 7°C 9.0°C
07/01/23 17:20 EGSS 071720Z AUTO 19015KT 7000 -RA FEW015/// BKN020/// BKN026/// //////CB 10/08 Q0995 -RA 17.3mph 10°C 8°C 10.4°C
07/01/23 16:50 EGSS 071650Z AUTO 20015KT 9999 SCT019 SCT026 10/08 Q0995 17.3mph 10°C 8°C 10.4°C
07/01/23 16:20 EGSS 071620Z AUTO 20015KT 9999 SCT017 BKN038 10/08 Q0995 17.3mph 10°C 8°C 10.4°C
07/01/23 15:50 EGSS 071550Z AUTO 20016KT 9999 BKN015/// //////TCU 11/09 Q0996 18.4mph 11°C 9°C 11.8°C
07/01/23 15:20 EGSS 071520Z AUTO 19019KT 9999 BKN012 11/09 Q0996 21.9mph 11°C 9°C 11.8°C
07/01/23 14:50 EGSS 071450Z AUTO 19017KT 4800 -RADZ BKN010 OVC028 10/09 Q0996 -RA -DZ 19.6mph 10°C 9°C 10.8°C
07/01/23 14:20 EGSS 071420Z AUTO 19017KT 4900 HZ OVC011 10/08 Q0996 HZ 19.6mph 10°C 8°C 10.4°C
07/01/23 13:50 EGSS 071350Z AUTO 19017G27KT 9999 OVC012 10/08 Q0997 19.6mph 31.1mph 10°C 8°C 10.4°C
07/01/23 12:50 EGSS 071250Z AUTO 19017KT 9999 OVC012 10/08 Q0997 19.6mph 10°C 8°C 10.4°C
07/01/23 12:20 EGSS 071220Z AUTO 19016KT 9999 -RA OVC011 10/08 Q0998 RERA REDZ -RA 18.4mph 10°C 8°C 10.4°C
07/01/23 11:50 EGSS 071150Z AUTO 18018KT 5000 -RADZ BKN007 OVC012 09/08 Q0999 RERA REDZ -RA -DZ 20.7mph 9°C 8°C 9.4°C
07/01/23 11:20 EGSS 071120Z AUTO 18017KT 4800 RA OVC007 09/08 Q0999 RA 19.6mph 9°C 8°C 9.4°C
07/01/23 10:50 EGSS 071050Z AUTO 18019KT 9999 -RA OVC009 09/08 Q1000 -RA 21.9mph 9°C 8°C 9.4°C
07/01/23 10:20 EGSS 071020Z AUTO 17017KT 9999 -RA OVC011 09/08 Q1000 -RA 19.6mph 9°C 8°C 9.4°C
07/01/23 09:50 EGSS 070950Z AUTO 17018KT 9999 -RA OVC016 10/08 Q1000 -RA 20.7mph 10°C 8°C 10.4°C
07/01/23 09:20 EGSS 070920Z AUTO 17018KT 9999 -RA OVC019 10/07 Q1000 -RA 20.7mph 10°C 7°C 10.0°C
07/01/23 08:50 EGSS 070850Z AUTO 17019KT 9999 BKN021 OVC025 10/07 Q1001 21.9mph 10°C 7°C 10.0°C
07/01/23 08:20 EGSS 070820Z AUTO 17020KT 9999 BKN022 BKN027 OVC039 10/07 Q1001 23.0mph 10°C 7°C 10.0°C
07/01/23 07:50 EGSS 070750Z AUTO 17020G30KT 9999 BKN021 OVC040 10/07 Q1002 23.0mph 34.5mph 10°C 7°C 10.0°C
07/01/23 07:20 EGSS 070720Z AUTO 17023G33KT 9999 BKN021 OVC049 10/07 Q1002 26.5mph 38.0mph 10°C 7°C 10.0°C
07/01/23 06:50 EGSS 070650Z AUTO 18021KT 9999 BKN021 BKN027 10/07 Q1003 24.2mph 10°C 7°C 10.0°C
07/01/23 06:20 EGSS 070620Z AUTO 18021KT 9999 BKN021 11/07 Q1004 24.2mph 11°C 7°C 11.0°C
07/01/23 05:50 EGSS 070550Z AUTO 18019KT 9999 OVC019 11/08 Q1004 21.9mph 11°C 8°C 11.4°C
07/01/23 05:20 EGSS 070520Z AUTO 18019G30KT 9999 BKN019 OVC026 11/08 Q1004 21.9mph 34.5mph 11°C 8°C 11.4°C